sensor_id;sensor_type;location;lat;lon;timestamp;P1;durP1;ratioP1;P2;durP2;ratioP2
22107;SDS011;11220;48.812;9.128;2023-02-28T00:01:23;0.20;;;0.20;;
22107;SDS011;11220;48.812;9.128;2023-02-28T00:03:49;0.10;;;0.10;;
22107;SDS011;11220;48.812;9.128;2023-02-28T00:06:14;0.17;;;0.17;;
22107;SDS011;11220;48.812;9.128;2023-02-28T00:08:40;0.28;;;0.20;;
22107;SDS011;11220;48.812;9.128;2023-02-28T00:11:10;0.20;;;0.20;;
22107;SDS011;11220;48.812;9.128;2023-02-28T00:13:38;0.20;;;0.20;;
22107;SDS011;11220;48.812;9.128;2023-02-28T00:16:08;0.17;;;0.10;;
22107;SDS011;11220;48.812;9.128;2023-02-28T00:18:35;0.25;;;0.20;;
22107;SDS011;11220;48.812;9.128;2023-02-28T00:21:01;0.10;;;0.10;;
22107;SDS011;11220;48.812;9.128;2023-02-28T00:23:27;0.20;;;0.10;;
22107;SDS011;11220;48.812;9.128;2023-02-28T00:25:53;0.55;;;0.30;;
22107;SDS011;11220;48.812;9.128;2023-02-28T00:28:19;1.17;;;0.55;;
22107;SDS011;11220;48.812;9.128;2023-02-28T00:30:45;0.22;;;0.20;;
22107;SDS011;11220;48.812;9.128;2023-02-28T00:33:11;0.43;;;0.20;;
22107;SDS011;11220;48.812;9.128;2023-02-28T00:35:36;0.55;;;0.30;;
22107;SDS011;11220;48.812;9.128;2023-02-28T00:38:02;0.20;;;0.20;;
22107;SDS011;11220;48.812;9.128;2023-02-28T00:40:28;0.25;;;0.10;;
22107;SDS011;11220;48.812;9.128;2023-02-28T00:42:54;0.20;;;0.20;;
22107;SDS011;11220;48.812;9.128;2023-02-28T00:45:20;0.20;;;0.20;;
22107;SDS011;11220;48.812;9.128;2023-02-28T00:47:45;0.17;;;0.17;;
22107;SDS011;11220;48.812;9.128;2023-02-28T00:50:14;0.20;;;0.20;;
22107;SDS011;11220;48.812;9.128;2023-02-28T00:52:41;0.20;;;0.13;;
22107;SDS011;11220;48.812;9.128;2023-02-28T00:55:07;0.20;;;0.20;;
22107;SDS011;11220;48.812;9.128;2023-02-28T00:57:32;0.35;;;0.17;;
22107;SDS011;11220;48.812;9.128;2023-02-28T00:59:58;0.20;;;0.20;;
22107;SDS011;11220;48.812;9.128;2023-02-28T01:02:23;0.30;;;0.20;;
22107;SDS011;11220;48.812;9.128;2023-02-28T01:04:49;0.20;;;0.17;;
22107;SDS011;11220;48.812;9.128;2023-02-28T01:07:14;0.30;;;0.20;;
22107;SDS011;11220;48.812;9.128;2023-02-28T01:09:40;0.22;;;0.20;;
22107;SDS011;11220;48.812;9.128;2023-02-28T01:12:07;0.20;;;0.20;;
22107;SDS011;11220;48.812;9.128;2023-02-28T01:14:33;0.20;;;0.20;;
22107;SDS011;11220;48.812;9.128;2023-02-28T01:16:59;0.28;;;0.15;;
22107;SDS011;11220;48.812;9.128;2023-02-28T01:19:25;0.35;;;0.20;;
22107;SDS011;11220;48.812;9.128;2023-02-28T01:21:50;0.20;;;0.10;;
22107;SDS011;11220;48.812;9.128;2023-02-28T01:24:16;0.30;;;0.30;;
22107;SDS011;11220;48.812;9.128;2023-02-28T01:26:41;0.20;;;0.20;;
22107;SDS011;11220;48.812;9.128;2023-02-28T01:29:07;0.20;;;0.20;;
22107;SDS011;11220;48.812;9.128;2023-02-28T01:31:32;0.20;;;0.20;;
22107;SDS011;11220;48.812;9.128;2023-02-28T01:33:58;0.22;;;0.10;;
22107;SDS011;11220;48.812;9.128;2023-02-28T01:36:24;0.10;;;0.10;;
22107;SDS011;11220;48.812;9.128;2023-02-28T01:38:50;0.77;;;0.30;;
22107;SDS011;11220;48.812;9.128;2023-02-28T01:41:17;0.40;;;0.30;;
22107;SDS011;11220;48.812;9.128;2023-02-28T01:43:56;0.28;;;0.20;;
22107;SDS011;11220;48.812;9.128;2023-02-28T01:46:22;0.38;;;0.30;;
22107;SDS011;11220;48.812;9.128;2023-02-28T01:48:51;0.55;;;0.30;;
22107;SDS011;11220;48.812;9.128;2023-02-28T01:51:27;0.20;;;0.20;;
22107;SDS011;11220;48.812;9.128;2023-02-28T01:54:10;0.13;;;0.10;;
22107;SDS011;11220;48.812;9.128;2023-02-28T01:56:41;0.17;;;0.17;;
22107;SDS011;11220;48.812;9.128;2023-02-28T01:59:12;0.32;;;0.20;;
22107;SDS011;11220;48.812;9.128;2023-02-28T02:01:41;0.57;;;0.30;;
22107;SDS011;11220;48.812;9.128;2023-02-28T02:04:07;0.13;;;0.10;;
22107;SDS011;11220;48.812;9.128;2023-02-28T02:06:37;0.63;;;0.10;;
22107;SDS011;11220;48.812;9.128;2023-02-28T02:09:06;0.20;;;0.20;;
22107;SDS011;11220;48.812;9.128;2023-02-28T02:11:31;0.20;;;0.20;;
22107;SDS011;11220;48.812;9.128;2023-02-28T02:14:06;0.20;;;0.20;;
22107;SDS011;11220;48.812;9.128;2023-02-28T02:27:56;0.10;;;0.10;;
22107;SDS011;11220;48.812;9.128;2023-02-28T02:38:51;0.17;;;0.10;;
22107;SDS011;11220;48.812;9.128;2023-02-28T02:41:20;0.30;;;0.10;;
22107;SDS011;11220;48.812;9.128;2023-02-28T02:43:58;0.20;;;0.20;;
22107;SDS011;11220;48.812;9.128;2023-02-28T02:46:43;0.35;;;0.20;;
22107;SDS011;11220;48.812;9.128;2023-02-28T02:49:12;0.57;;;0.20;;
22107;SDS011;11220;48.812;9.128;2023-02-28T02:51:45;0.30;;;0.20;;
22107;SDS011;11220;48.812;9.128;2023-02-28T02:54:17;0.20;;;0.10;;
22107;SDS011;11220;48.812;9.128;2023-02-28T02:56:47;0.20;;;0.20;;
22107;SDS011;11220;48.812;9.128;2023-02-28T02:59:14;0.25;;;0.20;;
22107;SDS011;11220;48.812;9.128;2023-02-28T03:01:50;0.47;;;0.30;;
22107;SDS011;11220;48.812;9.128;2023-02-28T03:04:22;0.47;;;0.20;;
22107;SDS011;11220;48.812;9.128;2023-02-28T03:06:50;0.30;;;0.30;;
22107;SDS011;11220;48.812;9.128;2023-02-28T03:09:20;0.25;;;0.17;;
22107;SDS011;11220;48.812;9.128;2023-02-28T03:11:49;0.10;;;0.10;;
22107;SDS011;11220;48.812;9.128;2023-02-28T03:17:17;0.20;;;0.20;;
22107;SDS011;11220;48.812;9.128;2023-02-28T03:25:49;0.63;;;0.30;;
22107;SDS011;11220;48.812;9.128;2023-02-28T03:28:43;0.20;;;0.20;;
22107;SDS011;11220;48.812;9.128;2023-02-28T03:31:25;0.43;;;0.20;;
22107;SDS011;11220;48.812;9.128;2023-02-28T03:34:08;0.20;;;0.20;;
22107;SDS011;11220;48.812;9.128;2023-02-28T03:36:38;0.20;;;0.20;;
22107;SDS011;11220;48.812;9.128;2023-02-28T03:42:01;0.40;;;0.20;;
22107;SDS011;11220;48.812;9.128;2023-02-28T03:44:34;0.80;;;0.20;;
22107;SDS011;11220;48.812;9.128;2023-02-28T03:47:07;0.20;;;0.20;;
22107;SDS011;11220;48.812;9.128;2023-02-28T03:49:52;0.40;;;0.20;;
22107;SDS011;11220;48.812;9.128;2023-02-28T03:52:21;0.28;;;0.20;;
22107;SDS011;11220;48.812;9.128;2023-02-28T03:54:51;0.17;;;0.17;;
22107;SDS011;11220;48.812;9.128;2023-02-28T03:57:28;0.20;;;0.20;;
22107;SDS011;11220;48.812;9.128;2023-02-28T04:00:23;0.20;;;0.20;;
22107;SDS011;11220;48.812;9.128;2023-02-28T04:02:53;0.20;;;0.20;;
22107;SDS011;11220;48.812;9.128;2023-02-28T04:05:19;0.30;;;0.30;;
22107;SDS011;11220;48.812;9.128;2023-02-28T04:07:46;0.20;;;0.20;;
22107;SDS011;11220;48.812;9.128;2023-02-28T04:10:13;0.20;;;0.13;;
22107;SDS011;11220;48.812;9.128;2023-02-28T04:12:39;0.20;;;0.20;;
22107;SDS011;11220;48.812;9.128;2023-02-28T04:15:05;0.60;;;0.30;;
22107;SDS011;11220;48.812;9.128;2023-02-28T04:17:31;0.25;;;0.20;;
22107;SDS011;11220;48.812;9.128;2023-02-28T04:19:56;0.30;;;0.20;;
22107;SDS011;11220;48.812;9.128;2023-02-28T04:22:22;0.20;;;0.17;;
22107;SDS011;11220;48.812;9.128;2023-02-28T04:24:50;0.10;;;0.10;;
22107;SDS011;11220;48.812;9.128;2023-02-28T04:27:16;0.50;;;0.20;;
22107;SDS011;11220;48.812;9.128;2023-02-28T04:29:41;0.20;;;0.20;;
22107;SDS011;11220;48.812;9.128;2023-02-28T04:32:09;0.30;;;0.20;;
22107;SDS011;11220;48.812;9.128;2023-02-28T04:34:35;0.30;;;0.20;;
22107;SDS011;11220;48.812;9.128;2023-02-28T04:37:01;0.20;;;0.20;;
22107;SDS011;11220;48.812;9.128;2023-02-28T04:39:27;0.45;;;0.30;;
22107;SDS011;11220;48.812;9.128;2023-02-28T04:41:54;0.30;;;0.30;;
22107;SDS011;11220;48.812;9.128;2023-02-28T04:44:20;0.20;;;0.20;;
22107;SDS011;11220;48.812;9.128;2023-02-28T04:46:47;0.45;;;0.25;;
22107;SDS011;11220;48.812;9.128;2023-02-28T04:49:13;0.38;;;0.22;;
22107;SDS011;11220;48.812;9.128;2023-02-28T04:51:39;0.82;;;0.20;;
22107;SDS011;11220;48.812;9.128;2023-02-28T04:54:05;0.20;;;0.20;;
22107;SDS011;11220;48.812;9.128;2023-02-28T04:56:30;0.20;;;0.20;;
22107;SDS011;11220;48.812;9.128;2023-02-28T04:58:56;0.30;;;0.30;;
22107;SDS011;11220;48.812;9.128;2023-02-28T05:01:26;0.40;;;0.30;;
22107;SDS011;11220;48.812;9.128;2023-02-28T05:03:57;0.40;;;0.13;;
22107;SDS011;11220;48.812;9.128;2023-02-28T05:06:25;0.20;;;0.20;;
22107;SDS011;11220;48.812;9.128;2023-02-28T05:08:52;0.10;;;0.10;;
22107;SDS011;11220;48.812;9.128;2023-02-28T05:11:22;0.65;;;0.20;;
22107;SDS011;11220;48.812;9.128;2023-02-28T05:14:18;0.30;;;0.30;;
22107;SDS011;11220;48.812;9.128;2023-02-28T05:16:43;0.30;;;0.25;;
22107;SDS011;11220;48.812;9.128;2023-02-28T05:19:09;0.20;;;0.17;;
22107;SDS011;11220;48.812;9.128;2023-02-28T05:21:36;0.30;;;0.17;;
22107;SDS011;11220;48.812;9.128;2023-02-28T05:24:03;0.55;;;0.30;;
22107;SDS011;11220;48.812;9.128;2023-02-28T05:26:30;1.08;;;0.35;;
22107;SDS011;11220;48.812;9.128;2023-02-28T05:28:59;0.52;;;0.30;;
22107;SDS011;11220;48.812;9.128;2023-02-28T05:31:24;0.30;;;0.25;;
22107;SDS011;11220;48.812;9.128;2023-02-28T05:33:50;0.30;;;0.30;;
22107;SDS011;11220;48.812;9.128;2023-02-28T05:36:16;0.35;;;0.20;;
22107;SDS011;11220;48.812;9.128;2023-02-28T05:38:41;0.35;;;0.20;;
22107;SDS011;11220;48.812;9.128;2023-02-28T05:41:08;0.85;;;0.30;;
22107;SDS011;11220;48.812;9.128;2023-02-28T05:43:34;0.30;;;0.30;;
22107;SDS011;11220;48.812;9.128;2023-02-28T05:46:02;0.35;;;0.20;;
22107;SDS011;11220;48.812;9.128;2023-02-28T05:48:29;0.22;;;0.20;;
22107;SDS011;11220;48.812;9.128;2023-02-28T05:50:56;0.40;;;0.30;;
22107;SDS011;11220;48.812;9.128;2023-02-28T05:53:22;0.32;;;0.20;;
22107;SDS011;11220;48.812;9.128;2023-02-28T05:55:48;0.30;;;0.20;;
22107;SDS011;11220;48.812;9.128;2023-02-28T05:58:13;0.20;;;0.20;;
22107;SDS011;11220;48.812;9.128;2023-02-28T06:00:39;0.20;;;0.20;;
22107;SDS011;11220;48.812;9.128;2023-02-28T06:03:04;0.20;;;0.17;;
22107;SDS011;11220;48.812;9.128;2023-02-28T06:05:30;0.30;;;0.30;;
22107;SDS011;11220;48.812;9.128;2023-02-28T06:07:55;0.20;;;0.20;;
22107;SDS011;11220;48.812;9.128;2023-02-28T06:10:21;0.20;;;0.20;;
22107;SDS011;11220;48.812;9.128;2023-02-28T06:12:46;0.47;;;0.20;;
22107;SDS011;11220;48.812;9.128;2023-02-28T06:15:13;0.40;;;0.30;;
22107;SDS011;11220;48.812;9.128;2023-02-28T06:17:40;0.45;;;0.20;;
22107;SDS011;11220;48.812;9.128;2023-02-28T06:20:06;0.20;;;0.20;;
22107;SDS011;11220;48.812;9.128;2023-02-28T06:22:33;0.22;;;0.17;;
22107;SDS011;11220;48.812;9.128;2023-02-28T06:25:00;0.20;;;0.17;;
22107;SDS011;11220;48.812;9.128;2023-02-28T06:27:25;0.13;;;0.10;;
22107;SDS011;11220;48.812;9.128;2023-02-28T06:29:53;0.20;;;0.20;;
22107;SDS011;11220;48.812;9.128;2023-02-28T06:32:20;0.20;;;0.20;;
22107;SDS011;11220;48.812;9.128;2023-02-28T06:34:46;0.30;;;0.20;;
22107;SDS011;11220;48.812;9.128;2023-02-28T06:37:12;0.20;;;0.20;;
22107;SDS011;11220;48.812;9.128;2023-02-28T06:39:37;0.22;;;0.22;;
22107;SDS011;11220;48.812;9.128;2023-02-28T06:42:03;0.10;;;0.10;;
22107;SDS011;11220;48.812;9.128;2023-02-28T06:44:28;0.40;;;0.10;;
22107;SDS011;11220;48.812;9.128;2023-02-28T06:47:00;0.20;;;0.17;;
22107;SDS011;11220;48.812;9.128;2023-02-28T06:49:30;0.10;;;0.10;;
22107;SDS011;11220;48.812;9.128;2023-02-28T06:51:57;0.20;;;0.20;;
22107;SDS011;11220;48.812;9.128;2023-02-28T06:54:22;0.35;;;0.25;;
22107;SDS011;11220;48.812;9.128;2023-02-28T06:56:48;0.30;;;0.30;;
22107;SDS011;11220;48.812;9.128;2023-02-28T06:59:14;0.20;;;0.20;;
22107;SDS011;11220;48.812;9.128;2023-02-28T07:01:39;0.15;;;0.10;;
22107;SDS011;11220;48.812;9.128;2023-02-28T07:04:05;0.10;;;0.10;;
22107;SDS011;11220;48.812;9.128;2023-02-28T07:06:31;0.20;;;0.20;;
22107;SDS011;11220;48.812;9.128;2023-02-28T07:08:57;0.52;;;0.20;;
22107;SDS011;11220;48.812;9.128;2023-02-28T07:11:24;0.20;;;0.20;;
22107;SDS011;11220;48.812;9.128;2023-02-28T07:13:51;0.17;;;0.10;;
22107;SDS011;11220;48.812;9.128;2023-02-28T07:16:20;0.35;;;0.13;;
22107;SDS011;11220;48.812;9.128;2023-02-28T07:18:47;0.22;;;0.20;;
22107;SDS011;11220;48.812;9.128;2023-02-28T07:21:13;0.22;;;0.20;;
22107;SDS011;11220;48.812;9.128;2023-02-28T07:23:39;0.57;;;0.30;;
22107;SDS011;11220;48.812;9.128;2023-02-28T07:26:06;0.20;;;0.20;;
22107;SDS011;11220;48.812;9.128;2023-02-28T07:28:32;0.68;;;0.22;;
22107;SDS011;11220;48.812;9.128;2023-02-28T07:31:03;0.40;;;0.25;;
22107;SDS011;11220;48.812;9.128;2023-02-28T07:33:29;0.38;;;0.28;;
22107;SDS011;11220;48.812;9.128;2023-02-28T07:35:59;0.20;;;0.20;;
22107;SDS011;11220;48.812;9.128;2023-02-28T07:38:29;0.20;;;0.20;;
22107;SDS011;11220;48.812;9.128;2023-02-28T07:40:55;0.22;;;0.22;;
22107;SDS011;11220;48.812;9.128;2023-02-28T07:43:21;0.20;;;0.20;;
22107;SDS011;11220;48.812;9.128;2023-02-28T07:45:46;0.32;;;0.20;;
22107;SDS011;11220;48.812;9.128;2023-02-28T07:48:12;0.10;;;0.10;;
22107;SDS011;11220;48.812;9.128;2023-02-28T07:50:37;0.40;;;0.20;;
22107;SDS011;11220;48.812;9.128;2023-02-28T07:53:03;0.43;;;0.30;;
22107;SDS011;11220;48.812;9.128;2023-02-28T07:55:29;0.40;;;0.20;;
22107;SDS011;11220;48.812;9.128;2023-02-28T07:57:56;0.30;;;0.20;;
22107;SDS011;11220;48.812;9.128;2023-02-28T08:00:23;0.38;;;0.30;;
22107;SDS011;11220;48.812;9.128;2023-02-28T08:02:48;0.30;;;0.20;;
22107;SDS011;11220;48.812;9.128;2023-02-28T08:05:14;0.38;;;0.20;;
22107;SDS011;11220;48.812;9.128;2023-02-28T08:07:41;0.10;;;0.10;;
22107;SDS011;11220;48.812;9.128;2023-02-28T08:10:06;0.22;;;0.22;;
22107;SDS011;11220;48.812;9.128;2023-02-28T08:12:34;0.30;;;0.22;;
22107;SDS011;11220;48.812;9.128;2023-02-28T08:15:00;0.20;;;0.20;;
22107;SDS011;11220;48.812;9.128;2023-02-28T08:17:25;0.20;;;0.20;;
22107;SDS011;11220;48.812;9.128;2023-02-28T08:19:51;0.20;;;0.20;;
22107;SDS011;11220;48.812;9.128;2023-02-28T08:22:16;0.22;;;0.13;;
22107;SDS011;11220;48.812;9.128;2023-02-28T08:24:42;0.20;;;0.20;;
22107;SDS011;11220;48.812;9.128;2023-02-28T08:27:08;0.20;;;0.20;;
22107;SDS011;11220;48.812;9.128;2023-02-28T08:29:36;0.38;;;0.30;;
22107;SDS011;11220;48.812;9.128;2023-02-28T08:32:03;0.50;;;0.43;;
22107;SDS011;11220;48.812;9.128;2023-02-28T08:34:29;0.68;;;0.28;;
22107;SDS011;11220;48.812;9.128;2023-02-28T08:36:55;0.30;;;0.30;;
22107;SDS011;11220;48.812;9.128;2023-02-28T08:39:20;0.40;;;0.30;;
22107;SDS011;11220;48.812;9.128;2023-02-28T08:41:46;0.17;;;0.17;;
22107;SDS011;11220;48.812;9.128;2023-02-28T08:44:11;0.30;;;0.30;;
22107;SDS011;11220;48.812;9.128;2023-02-28T08:46:37;0.40;;;0.30;;
22107;SDS011;11220;48.812;9.128;2023-02-28T08:49:03;0.32;;;0.30;;
22107;SDS011;11220;48.812;9.128;2023-02-28T08:51:28;0.20;;;0.20;;
22107;SDS011;11220;48.812;9.128;2023-02-28T08:53:55;0.50;;;0.20;;
22107;SDS011;11220;48.812;9.128;2023-02-28T08:56:24;0.32;;;0.25;;
22107;SDS011;11220;48.812;9.128;2023-02-28T08:58:51;0.28;;;0.17;;
22107;SDS011;11220;48.812;9.128;2023-02-28T09:01:20;0.40;;;0.15;;
22107;SDS011;11220;48.812;9.128;2023-02-28T09:03:48;0.35;;;0.28;;
22107;SDS011;11220;48.812;9.128;2023-02-28T09:06:16;0.20;;;0.20;;
22107;SDS011;11220;48.812;9.128;2023-02-28T09:08:43;0.25;;;0.25;;
22107;SDS011;11220;48.812;9.128;2023-02-28T09:11:09;0.40;;;0.20;;
22107;SDS011;11220;48.812;9.128;2023-02-28T09:13:35;0.43;;;0.30;;
22107;SDS011;11220;48.812;9.128;2023-02-28T09:16:02;0.68;;;0.20;;
22107;SDS011;11220;48.812;9.128;2023-02-28T09:18:28;0.30;;;0.20;;
22107;SDS011;11220;48.812;9.128;2023-02-28T09:20:54;0.20;;;0.20;;
22107;SDS011;11220;48.812;9.128;2023-02-28T09:23:20;0.30;;;0.20;;
22107;SDS011;11220;48.812;9.128;2023-02-28T09:25:50;0.30;;;0.20;;
22107;SDS011;11220;48.812;9.128;2023-02-28T09:28:17;0.50;;;0.30;;
22107;SDS011;11220;48.812;9.128;2023-02-28T09:30:44;0.20;;;0.20;;
22107;SDS011;11220;48.812;9.128;2023-02-28T09:33:10;0.20;;;0.20;;
22107;SDS011;11220;48.812;9.128;2023-02-28T09:35:36;0.17;;;0.15;;
22107;SDS011;11220;48.812;9.128;2023-02-28T09:38:02;0.30;;;0.20;;
22107;SDS011;11220;48.812;9.128;2023-02-28T09:40:28;0.28;;;0.20;;
22107;SDS011;11220;48.812;9.128;2023-02-28T09:42:55;0.30;;;0.28;;
22107;SDS011;11220;48.812;9.128;2023-02-28T09:45:26;0.10;;;0.10;;
22107;SDS011;11220;48.812;9.128;2023-02-28T09:48:12;0.17;;;0.17;;
22107;SDS011;11220;48.812;9.128;2023-02-28T09:50:52;0.10;;;0.10;;
22107;SDS011;11220;48.812;9.128;2023-02-28T09:53:27;0.20;;;0.20;;
22107;SDS011;11220;48.812;9.128;2023-02-28T09:56:00;0.25;;;0.20;;
22107;SDS011;11220;48.812;9.128;2023-02-28T10:06:48;0.20;;;0.20;;
22107;SDS011;11220;48.812;9.128;2023-02-28T10:09:22;0.20;;;0.10;;
22107;SDS011;11220;48.812;9.128;2023-02-28T10:12:03;0.20;;;0.20;;
22107;SDS011;11220;48.812;9.128;2023-02-28T10:14:30;0.50;;;0.20;;
22107;SDS011;11220;48.812;9.128;2023-02-28T10:22:58;0.50;;;0.30;;
22107;SDS011;11220;48.812;9.128;2023-02-28T10:25:32;0.28;;;0.20;;
22107;SDS011;11220;48.812;9.128;2023-02-28T10:28:13;0.30;;;0.28;;
22107;SDS011;11220;48.812;9.128;2023-02-28T10:30:42;0.20;;;0.20;;
22107;SDS011;11220;48.812;9.128;2023-02-28T10:33:17;0.30;;;0.30;;
22107;SDS011;11220;48.812;9.128;2023-02-28T10:35:48;0.90;;;0.30;;
22107;SDS011;11220;48.812;9.128;2023-02-28T10:38:16;0.47;;;0.30;;
22107;SDS011;11220;48.812;9.128;2023-02-28T10:40:44;0.65;;;0.30;;
22107;SDS011;11220;48.812;9.128;2023-02-28T10:45:38;0.38;;;0.30;;
22107;SDS011;11220;48.812;9.128;2023-02-28T10:50:43;0.43;;;0.30;;
22107;SDS011;11220;48.812;9.128;2023-02-28T10:53:16;0.30;;;0.30;;
22107;SDS011;11220;48.812;9.128;2023-02-28T10:55:58;0.32;;;0.30;;
22107;SDS011;11220;48.812;9.128;2023-02-28T11:01:21;0.40;;;0.30;;
22107;SDS011;11220;48.812;9.128;2023-02-28T11:03:47;0.30;;;0.30;;
22107;SDS011;11220;48.812;9.128;2023-02-28T11:06:18;0.20;;;0.20;;
22107;SDS011;11220;48.812;9.128;2023-02-28T11:08:55;0.32;;;0.25;;
22107;SDS011;11220;48.812;9.128;2023-02-28T11:11:23;0.35;;;0.17;;
22107;SDS011;11220;48.812;9.128;2023-02-28T11:13:53;0.17;;;0.17;;
22107;SDS011;11220;48.812;9.128;2023-02-28T11:16:21;0.35;;;0.30;;
22107;SDS011;11220;48.812;9.128;2023-02-28T11:18:56;0.30;;;0.30;;
22107;SDS011;11220;48.812;9.128;2023-02-28T11:23:51;0.28;;;0.20;;
22107;SDS011;11220;48.812;9.128;2023-02-28T11:26:41;0.20;;;0.20;;
22107;SDS011;11220;48.812;9.128;2023-02-28T11:29:10;0.20;;;0.20;;
22107;SDS011;11220;48.812;9.128;2023-02-28T11:31:41;0.73;;;0.20;;
22107;SDS011;11220;48.812;9.128;2023-02-28T11:34:21;0.30;;;0.30;;
22107;SDS011;11220;48.812;9.128;2023-02-28T11:36:49;0.28;;;0.28;;
22107;SDS011;11220;48.812;9.128;2023-02-28T11:39:17;0.10;;;0.10;;
22107;SDS011;11220;48.812;9.128;2023-02-28T11:44:56;0.20;;;0.20;;
22107;SDS011;11220;48.812;9.128;2023-02-28T11:53:00;0.20;;;0.20;;
22107;SDS011;11220;48.812;9.128;2023-02-28T11:55:32;0.10;;;0.10;;
22107;SDS011;11220;48.812;9.128;2023-02-28T12:01:00;0.20;;;0.20;;
22107;SDS011;11220;48.812;9.128;2023-02-28T12:03:44;0.10;;;0.10;;
22107;SDS011;11220;48.812;9.128;2023-02-28T12:12:19;0.17;;;0.17;;
22107;SDS011;11220;48.812;9.128;2023-02-28T12:23:41;0.30;;;0.20;;
22107;SDS011;11220;48.812;9.128;2023-02-28T12:26:25;0.20;;;0.20;;
22107;SDS011;11220;48.812;9.128;2023-02-28T12:29:04;0.20;;;0.20;;
22107;SDS011;11220;48.812;9.128;2023-02-28T12:31:47;0.10;;;0.10;;
22107;SDS011;11220;48.812;9.128;2023-02-28T12:34:18;0.45;;;0.20;;
22107;SDS011;11220;48.812;9.128;2023-02-28T12:36:47;0.20;;;0.20;;
22107;SDS011;11220;48.812;9.128;2023-02-28T12:39:16;0.63;;;0.32;;
22107;SDS011;11220;48.812;9.128;2023-02-28T12:41:49;0.63;;;0.20;;
22107;SDS011;11220;48.812;9.128;2023-02-28T12:44:30;1.00;;;0.32;;
22107;SDS011;11220;48.812;9.128;2023-02-28T12:52:04;0.55;;;0.40;;
22107;SDS011;11220;48.812;9.128;2023-02-28T12:57:19;0.38;;;0.38;;
22107;SDS011;11220;48.812;9.128;2023-02-28T13:00:20;0.57;;;0.40;;
22107;SDS011;11220;48.812;9.128;2023-02-28T13:02:57;0.40;;;0.38;;
22107;SDS011;11220;48.812;9.128;2023-02-28T13:08:37;0.50;;;0.50;;
22107;SDS011;11220;48.812;9.128;2023-02-28T13:11:23;0.60;;;0.50;;
22107;SDS011;11220;48.812;9.128;2023-02-28T13:14:05;0.45;;;0.43;;
22107;SDS011;11220;48.812;9.128;2023-02-28T13:16:48;0.38;;;0.30;;
22107;SDS011;11220;48.812;9.128;2023-02-28T13:19:28;0.70;;;0.35;;
22107;SDS011;11220;48.812;9.128;2023-02-28T13:21:56;0.77;;;0.55;;
22107;SDS011;11220;48.812;9.128;2023-02-28T13:24:36;0.82;;;0.70;;
22107;SDS011;11220;48.812;9.128;2023-02-28T13:29:30;0.55;;;0.55;;
22107;SDS011;11220;48.812;9.128;2023-02-28T13:34:30;0.80;;;0.52;;
22107;SDS011;11220;48.812;9.128;2023-02-28T13:38:09;1.00;;;0.63;;
22107;SDS011;11220;48.812;9.128;2023-02-28T13:39:58;0.85;;;0.80;;
22107;SDS011;11220;48.812;9.128;2023-02-28T13:42:47;1.02;;;0.68;;
22107;SDS011;11220;48.812;9.128;2023-02-28T13:45:27;0.90;;;0.80;;
22107;SDS011;11220;48.812;9.128;2023-02-28T13:48:05;0.50;;;0.50;;
22107;SDS011;11220;48.812;9.128;2023-02-28T13:50:43;0.70;;;0.60;;
22107;SDS011;11220;48.812;9.128;2023-02-28T13:58:57;1.08;;;0.85;;
22107;SDS011;11220;48.812;9.128;2023-02-28T14:01:52;1.52;;;0.82;;
22107;SDS011;11220;48.812;9.128;2023-02-28T14:06:55;1.17;;;0.85;;
22107;SDS011;11220;48.812;9.128;2023-02-28T14:09:24;1.55;;;1.00;;
22107;SDS011;11220;48.812;9.128;2023-02-28T14:11:55;1.30;;;1.08;;
22107;SDS011;11220;48.812;9.128;2023-02-28T14:17:01;1.08;;;0.98;;
22107;SDS011;11220;48.812;9.128;2023-02-28T14:19:30;1.00;;;0.90;;
22107;SDS011;11220;48.812;9.128;2023-02-28T14:24:50;0.93;;;0.93;;
22107;SDS011;11220;48.812;9.128;2023-02-28T14:27:24;0.65;;;0.55;;
22107;SDS011;11220;48.812;9.128;2023-02-28T14:32:53;0.80;;;0.70;;
22107;SDS011;11220;48.812;9.128;2023-02-28T14:35:39;0.93;;;0.73;;
22107;SDS011;11220;48.812;9.128;2023-02-28T14:38:07;0.80;;;0.60;;
22107;SDS011;11220;48.812;9.128;2023-02-28T14:40:55;0.93;;;0.65;;
22107;SDS011;11220;48.812;9.128;2023-02-28T14:43:27;0.85;;;0.70;;
22107;SDS011;11220;48.812;9.128;2023-02-28T14:45:57;0.77;;;0.70;;
22107;SDS011;11220;48.812;9.128;2023-02-28T14:48:25;0.60;;;0.50;;
22107;SDS011;11220;48.812;9.128;2023-02-28T14:50:52;0.63;;;0.63;;
22107;SDS011;11220;48.812;9.128;2023-02-28T14:53:20;0.77;;;0.60;;
22107;SDS011;11220;48.812;9.128;2023-02-28T14:55:48;0.55;;;0.55;;
22107;SDS011;11220;48.812;9.128;2023-02-28T14:58:22;0.43;;;0.43;;
22107;SDS011;11220;48.812;9.128;2023-02-28T15:00:51;0.40;;;0.40;;
22107;SDS011;11220;48.812;9.128;2023-02-28T15:05:53;0.40;;;0.40;;
22107;SDS011;11220;48.812;9.128;2023-02-28T15:08:21;0.40;;;0.40;;
22107;SDS011;11220;48.812;9.128;2023-02-28T15:10:54;0.40;;;0.40;;
22107;SDS011;11220;48.812;9.128;2023-02-28T15:13:22;0.40;;;0.30;;
22107;SDS011;11220;48.812;9.128;2023-02-28T15:18:36;0.70;;;0.40;;
22107;SDS011;11220;48.812;9.128;2023-02-28T15:21:04;0.57;;;0.50;;
22107;SDS011;11220;48.812;9.128;2023-02-28T15:23:34;0.30;;;0.30;;
22107;SDS011;11220;48.812;9.128;2023-02-28T15:26:01;0.20;;;0.20;;
22107;SDS011;11220;48.812;9.128;2023-02-28T15:28:27;0.20;;;0.20;;
22107;SDS011;11220;48.812;9.128;2023-02-28T15:30:57;0.40;;;0.38;;
22107;SDS011;11220;48.812;9.128;2023-02-28T15:33:26;0.30;;;0.30;;
22107;SDS011;11220;48.812;9.128;2023-02-28T15:36:03;0.50;;;0.40;;
22107;SDS011;11220;48.812;9.128;2023-02-28T15:38:36;0.75;;;0.75;;
22107;SDS011;11220;48.812;9.128;2023-02-28T15:41:01;0.70;;;0.70;;
22107;SDS011;11220;48.812;9.128;2023-02-28T15:43:36;0.95;;;0.68;;
22107;SDS011;11220;48.812;9.128;2023-02-28T15:46:09;0.50;;;0.50;;
22107;SDS011;11220;48.812;9.128;2023-02-28T15:48:45;0.50;;;0.50;;
22107;SDS011;11220;48.812;9.128;2023-02-28T15:51:17;1.17;;;0.65;;
22107;SDS011;11220;48.812;9.128;2023-02-28T15:54:07;0.60;;;0.60;;
22107;SDS011;11220;48.812;9.128;2023-02-28T15:56:43;0.63;;;0.60;;
22107;SDS011;11220;48.812;9.128;2023-02-28T15:59:13;1.00;;;0.60;;
22107;SDS011;11220;48.812;9.128;2023-02-28T16:01:43;1.48;;;0.50;;
22107;SDS011;11220;48.812;9.128;2023-02-28T16:04:16;0.70;;;0.60;;
22107;SDS011;11220;48.812;9.128;2023-02-28T16:06:44;0.70;;;0.70;;
22107;SDS011;11220;48.812;9.128;2023-02-28T16:09:14;0.75;;;0.40;;
22107;SDS011;11220;48.812;9.128;2023-02-28T16:11:42;0.73;;;0.50;;
22107;SDS011;11220;48.812;9.128;2023-02-28T16:14:17;0.60;;;0.60;;
22107;SDS011;11220;48.812;9.128;2023-02-28T16:19:12;0.65;;;0.50;;
22107;SDS011;11220;48.812;9.128;2023-02-28T16:21:38;0.40;;;0.40;;
22107;SDS011;11220;48.812;9.128;2023-02-28T16:24:04;0.77;;;0.50;;
22107;SDS011;11220;48.812;9.128;2023-02-28T16:26:30;0.40;;;0.40;;
22107;SDS011;11220;48.812;9.128;2023-02-28T16:28:59;0.90;;;0.70;;
22107;SDS011;11220;48.812;9.128;2023-02-28T16:31:25;0.82;;;0.60;;
22107;SDS011;11220;48.812;9.128;2023-02-28T16:33:50;0.73;;;0.70;;
22107;SDS011;11220;48.812;9.128;2023-02-28T16:36:17;0.70;;;0.70;;
22107;SDS011;11220;48.812;9.128;2023-02-28T16:38:45;1.90;;;0.73;;
22107;SDS011;11220;48.812;9.128;2023-02-28T16:41:15;1.40;;;0.70;;
22107;SDS011;11220;48.812;9.128;2023-02-28T16:43:52;1.02;;;0.55;;
22107;SDS011;11220;48.812;9.128;2023-02-28T16:46:30;0.73;;;0.60;;
22107;SDS011;11220;48.812;9.128;2023-02-28T16:48:58;0.70;;;0.70;;
22107;SDS011;11220;48.812;9.128;2023-02-28T16:51:23;0.80;;;0.60;;
22107;SDS011;11220;48.812;9.128;2023-02-28T16:53:49;0.80;;;0.80;;
22107;SDS011;11220;48.812;9.128;2023-02-28T16:56:18;0.82;;;0.73;;
22107;SDS011;11220;48.812;9.128;2023-02-28T16:58:46;1.33;;;0.70;;
22107;SDS011;11220;48.812;9.128;2023-02-28T17:01:13;0.82;;;0.65;;
22107;SDS011;11220;48.812;9.128;2023-02-28T17:03:39;0.65;;;0.50;;
22107;SDS011;11220;48.812;9.128;2023-02-28T17:06:06;0.55;;;0.40;;